Login to view products.  
Friday, October 20, 2017 (19:33 UTC)
Sharjah International Airport
ICAO Code: OMSJ
IATA Code: SHJ
  • METAR OMSJ 201900Z 17003KT CAVOK 28/19 Q1011=
  • TAF OMSJ 201651Z 2018/2200 15005KT 8000 NSC BECMG 2107/2109 32012KT BECMG 2116/2118 15005KT=